createdAt,value
2022-10-18T00:01:18.681Z,100935.94
2022-10-18T00:04:21.999Z,100934.28
2022-10-18T00:07:24.807Z,100933.22
2022-10-18T00:10:27.923Z,100937.63
2022-10-18T00:13:30.549Z,100937.19
2022-10-18T00:16:33.464Z,100927.97
2022-10-18T00:19:36.290Z,100921.47
2022-10-18T00:22:40.952Z,100922.75
2022-10-18T00:25:43.591Z,100920.44
2022-10-18T00:28:50.366Z,100914.13
2022-10-18T00:31:53.252Z,100910.19
2022-10-18T00:34:56.234Z,100895.78
2022-10-18T00:37:58.920Z,100907.66
2022-10-18T00:41:02.332Z,100902.84
2022-10-18T00:44:26.458Z,100896.12
2022-10-18T00:47:30.113Z,100896.94
2022-10-18T00:50:35.022Z,100891.72
2022-10-18T00:53:38.232Z,100892.94
2022-10-18T00:56:41.815Z,100890.84
2022-10-18T00:59:46.638Z,100885.00
2022-10-18T01:02:49.682Z,100880.19
2022-10-18T01:05:52.838Z,100874.78
2022-10-18T01:09:04.737Z,100875.81
2022-10-18T01:12:33.184Z,100879.41
2022-10-18T01:16:01.896Z,100874.03
2022-10-18T01:19:29.804Z,100873.03
2022-10-18T01:22:43.799Z,100871.53
2022-10-18T01:26:03.612Z,100862.59
2022-10-18T01:29:38.641Z,100867.19
2022-10-18T01:32:48.770Z,100846.41
2022-10-18T01:36:17.390Z,100850.41
2022-10-18T01:39:26.702Z,100849.91
2022-10-18T01:42:30.353Z,100847.37
2022-10-18T01:45:33.437Z,100844.44
2022-10-18T01:48:38.151Z,100845.88
2022-10-18T01:51:41.111Z,100837.13
2022-10-18T01:54:50.893Z,100843.34
2022-10-18T01:57:59.996Z,100842.91
2022-10-18T02:01:18.219Z,100846.22
2022-10-18T02:04:41.146Z,100839.69
2022-10-18T02:07:55.454Z,100840.50
2022-10-18T02:11:14.756Z,100833.13
2022-10-18T02:14:19.584Z,100830.19
2022-10-18T02:17:27.958Z,100829.53
2022-10-18T02:20:32.568Z,100827.03
2022-10-18T02:23:36.334Z,100824.31
2022-10-18T02:26:40.003Z,100827.41
2022-10-18T02:29:44.409Z,100816.78
2022-10-18T02:32:59.052Z,100820.72
2022-10-18T02:36:13.853Z,100826.53
2022-10-18T02:39:25.228Z,100825.25
2022-10-18T02:42:35.588Z,100823.31
2022-10-18T02:45:38.224Z,100826.22
2022-10-18T02:48:41.261Z,100823.72
2022-10-18T02:51:43.993Z,100827.66
2022-10-18T02:54:47.135Z,100824.09
2022-10-18T02:57:49.967Z,100825.59
2022-10-18T03:00:53.090Z,100824.09
2022-10-18T03:03:56.002Z,100821.78
2022-10-18T03:06:59.023Z,100828.62
2022-10-18T03:10:02.297Z,100827.13
2022-10-18T03:13:05.530Z,100834.19
2022-10-18T03:16:08.466Z,100831.88
2022-10-18T03:19:11.411Z,100826.38
2022-10-18T03:22:14.084Z,100835.94
2022-10-18T03:25:17.164Z,100833.41
2022-10-18T03:28:20.044Z,100839.09
2022-10-18T03:31:23.516Z,100840.13
2022-10-18T03:34:26.747Z,100834.84
2022-10-18T03:37:29.855Z,100843.97
2022-10-18T03:40:33.989Z,100847.56
2022-10-18T03:43:37.013Z,100844.25
2022-10-18T03:46:39.980Z,100850.06
2022-10-18T03:49:43.047Z,100852.69
2022-10-18T03:52:45.772Z,100850.34
2022-10-18T03:55:53.291Z,100843.66
2022-10-18T03:58:57.251Z,100838.81
2022-10-18T04:02:00.541Z,100833.16
2022-10-18T04:05:03.902Z,100831.50
2022-10-18T04:08:06.686Z,100839.84
2022-10-18T04:11:11.184Z,100838.66
2022-10-18T04:14:13.762Z,100831.28
2022-10-18T04:17:16.880Z,100827.75
2022-10-18T04:20:20.140Z,100822.97
2022-10-18T04:23:23.123Z,100829.87
2022-10-18T04:26:25.859Z,100826.31
2022-10-18T04:29:28.815Z,100826.94
2022-10-18T04:32:31.558Z,100816.87
2022-10-18T04:35:34.492Z,100820.03
2022-10-18T04:38:37.273Z,100815.00
2022-10-18T04:41:40.358Z,100817.94
2022-10-18T04:44:43.040Z,100817.09
2022-10-18T04:47:45.853Z,100808.59
2022-10-18T04:50:49.854Z,100802.97
2022-10-18T04:53:52.879Z,100807.94
2022-10-18T04:56:56.141Z,100799.37
2022-10-18T04:59:59.065Z,100795.38
2022-10-18T05:03:01.785Z,100797.47
2022-10-18T05:06:05.532Z,100802.87
2022-10-18T05:09:08.289Z,100794.47
2022-10-18T05:12:11.240Z,100795.25
2022-10-18T05:15:13.904Z,100791.44
2022-10-18T05:18:16.915Z,100796.03
2022-10-18T05:21:19.757Z,100791.91
2022-10-18T05:24:25.471Z,100787.16
2022-10-18T05:27:30.550Z,100788.88
2022-10-18T05:30:34.022Z,100785.50
2022-10-18T05:33:36.820Z,100778.69
2022-10-18T05:36:39.721Z,100779.94
2022-10-18T05:39:42.380Z,100767.69
2022-10-18T05:42:45.273Z,100796.81
2022-10-18T05:45:51.478Z,100789.37
2022-10-18T05:48:54.328Z,100791.75
2022-10-18T05:51:57.927Z,100765.19
2022-10-18T05:55:01.706Z,100775.25
2022-10-18T05:58:04.550Z,100789.19
2022-10-18T06:01:08.407Z,100791.62
2022-10-18T06:04:11.633Z,100785.06
2022-10-18T06:07:14.312Z,100791.62
2022-10-18T06:10:20.768Z,100789.91
2022-10-18T06:13:23.436Z,100788.19
2022-10-18T06:16:31.372Z,100798.25
2022-10-18T06:19:35.235Z,100806.00
2022-10-18T06:22:38.186Z,100808.06
2022-10-18T06:25:40.769Z,100812.97
2022-10-18T06:28:43.746Z,100820.00
2022-10-18T06:31:46.488Z,100821.28
2022-10-18T06:34:49.297Z,100820.44
2022-10-18T06:37:52.008Z,100824.41
2022-10-18T06:40:55.746Z,100817.78
2022-10-18T06:44:03.223Z,100813.53
2022-10-18T06:47:07.820Z,100811.41
2022-10-18T06:50:11.648Z,100813.53
2022-10-18T06:53:14.526Z,100808.94
2022-10-18T06:56:17.120Z,100800.06
2022-10-18T06:59:20.127Z,100809.34
2022-10-18T07:02:22.650Z,100809.25
2022-10-18T07:05:25.691Z,100800.50
2022-10-18T07:08:28.486Z,100806.00
2022-10-18T07:11:31.723Z,100803.25
2022-10-18T07:14:34.337Z,100802.06
2022-10-18T07:17:37.167Z,100789.37
2022-10-18T07:20:40.094Z,100778.81
2022-10-18T07:23:45.987Z,100795.78
2022-10-18T07:26:48.534Z,100789.69
2022-10-18T07:29:51.562Z,100797.50
2022-10-18T07:32:54.104Z,100791.75
2022-10-18T07:36:02.022Z,100796.94
2022-10-18T07:39:05.105Z,100787.38
2022-10-18T07:42:08.125Z,100787.81
2022-10-18T07:45:12.598Z,100770.31
2022-10-18T07:48:15.483Z,100785.75
2022-10-18T07:51:19.461Z,100778.59
2022-10-18T07:54:22.553Z,100776.75
2022-10-18T07:57:25.148Z,100786.69
2022-10-18T08:00:28.101Z,100781.97
2022-10-18T08:03:31.612Z,100777.31
2022-10-18T08:06:34.683Z,100772.84
2022-10-18T08:09:39.085Z,100773.97
2022-10-18T08:12:41.901Z,100769.25
2022-10-18T08:15:44.852Z,100756.31
2022-10-18T08:18:47.527Z,100755.56
2022-10-18T08:21:50.337Z,100763.19
2022-10-18T08:24:52.915Z,100757.12
2022-10-18T08:27:55.736Z,100756.59
2022-10-18T08:31:13.181Z,100753.56
2022-10-18T08:37:38.581Z,100756.25
2022-10-18T08:40:44.656Z,100745.50
2022-10-18T08:44:09.049Z,100736.94
2022-10-18T08:47:28.855Z,100742.44
2022-10-18T08:50:37.833Z,100729.69
2022-10-18T08:53:55.638Z,100741.53
2022-10-18T08:57:01.038Z,100739.03
2022-10-18T09:00:16.740Z,100731.56
2022-10-18T09:03:36.402Z,100737.03
2022-10-18T09:06:44.747Z,100731.00
2022-10-18T09:09:59.591Z,100732.09
2022-10-18T09:13:05.276Z,100724.38
2022-10-18T09:16:54.186Z,100720.56
2022-10-18T09:20:15.825Z,100727.22
2022-10-18T09:23:31.521Z,100715.91
2022-10-18T09:26:47.286Z,100729.50
2022-10-18T09:30:20.815Z,100708.53
2022-10-18T09:33:41.834Z,100719.69
2022-10-18T09:36:45.472Z,100710.44
2022-10-18T09:39:51.019Z,100710.19
2022-10-18T09:43:00.004Z,100709.38
2022-10-18T09:46:05.222Z,100702.47
2022-10-18T09:49:27.317Z,100710.19
2022-10-18T09:52:43.631Z,100703.31
2022-10-18T09:55:54.766Z,100697.75
2022-10-18T09:58:57.649Z,100708.00
2022-10-18T10:02:00.493Z,100698.88
2022-10-18T10:05:03.610Z,100696.94
2022-10-18T10:08:06.822Z,100701.37
2022-10-18T10:11:35.023Z,100696.41
2022-10-18T10:14:44.040Z,100695.56
2022-10-18T10:18:05.864Z,100686.44
2022-10-18T10:21:15.137Z,100679.56
2022-10-18T10:24:27.360Z,100680.94
2022-10-18T10:27:46.138Z,100678.44
2022-10-18T10:30:49.738Z,100661.06
2022-10-18T10:34:05.382Z,100656.91
2022-10-18T10:37:23.332Z,100651.69
2022-10-18T10:40:34.834Z,100656.94
2022-10-18T10:43:40.093Z,100654.16
2022-10-18T10:46:43.483Z,100656.94
2022-10-18T10:49:47.849Z,100653.87
2022-10-18T10:52:50.665Z,100648.09
2022-10-18T10:55:56.081Z,100633.72
2022-10-18T10:59:14.905Z,100633.19
2022-10-18T11:02:23.458Z,100625.66
2022-10-18T11:05:29.441Z,100620.94
2022-10-18T11:08:38.954Z,100619.53
2022-10-18T11:11:51.892Z,100615.41
2022-10-18T11:15:10.610Z,100605.41
2022-10-18T11:18:25.704Z,100596.50
2022-10-18T11:21:31.863Z,100594.50
2022-10-18T11:24:36.107Z,100589.47
2022-10-18T11:27:42.276Z,100583.63
2022-10-18T11:31:16.093Z,100578.81
2022-10-18T11:34:43.066Z,100569.44
2022-10-18T11:37:58.409Z,100566.28
2022-10-18T11:41:24.881Z,100569.56
2022-10-18T11:44:37.558Z,100561.81
2022-10-18T11:47:57.906Z,100561.47
2022-10-18T11:51:29.668Z,100559.47
2022-10-18T11:55:06.440Z,100557.22
2022-10-18T11:58:36.799Z,100540.31
2022-10-18T12:01:44.167Z,100549.56
2022-10-18T12:04:58.555Z,100536.25
2022-10-18T12:08:26.778Z,100526.34
2022-10-18T12:11:33.975Z,100526.75
2022-10-18T12:14:46.401Z,100524.63
2022-10-18T12:17:56.181Z,100522.41
2022-10-18T12:21:00.037Z,100510.25
2022-10-18T12:24:16.201Z,100500.50
2022-10-18T12:27:24.593Z,100505.63
2022-10-18T12:30:42.341Z,100497.34
2022-10-18T12:33:49.530Z,100492.19
2022-10-18T12:37:22.954Z,100483.84
2022-10-18T12:40:48.466Z,100494.00
2022-10-18T12:43:54.248Z,100501.44
2022-10-18T12:46:59.470Z,100476.03
2022-10-18T12:50:06.830Z,100478.72
2022-10-18T12:53:09.632Z,100476.75
2022-10-18T12:56:27.813Z,100477.00
2022-10-18T12:59:30.283Z,100480.87
2022-10-18T13:02:33.749Z,100484.37
2022-10-18T13:05:54.330Z,100480.72
2022-10-18T13:09:20.509Z,100476.72
2022-10-18T13:12:22.944Z,100477.78
2022-10-18T13:15:37.554Z,100462.22
2022-10-18T13:18:59.980Z,100450.37
2022-10-18T13:22:21.125Z,100449.28
2022-10-18T13:25:28.599Z,100459.47
2022-10-18T13:28:38.887Z,100451.66
2022-10-18T13:32:27.641Z,100443.66
2022-10-18T13:36:00.475Z,100451.16
2022-10-18T13:39:06.072Z,100446.78
2022-10-18T13:42:14.769Z,100447.91
2022-10-18T13:45:32.458Z,100447.13
2022-10-18T13:48:35.298Z,100450.75
2022-10-18T13:51:50.562Z,100441.09
2022-10-18T13:55:30.649Z,100442.78
2022-10-18T13:59:14.077Z,100445.31
2022-10-18T14:02:57.539Z,100440.91
2022-10-18T14:06:10.389Z,100436.53
2022-10-18T14:09:26.006Z,100432.12
2022-10-18T14:12:41.737Z,100418.94
2022-10-18T14:15:48.521Z,100424.47
2022-10-18T14:18:54.704Z,100412.66
2022-10-18T14:22:20.007Z,100404.44
2022-10-18T14:25:39.390Z,100409.56
2022-10-18T14:28:59.049Z,100411.44
2022-10-18T14:32:02.325Z,100416.22
2022-10-18T14:35:32.968Z,100409.53
2022-10-18T14:38:38.686Z,100404.19
2022-10-18T14:41:52.702Z,100407.66
2022-10-18T14:44:56.557Z,100382.91
2022-10-18T14:48:22.233Z,100401.72
2022-10-18T14:51:36.620Z,100389.87
2022-10-18T14:54:39.813Z,100368.53
2022-10-18T14:57:42.631Z,100373.28
2022-10-18T15:00:48.570Z,100376.13
2022-10-18T15:03:56.890Z,100374.50
2022-10-18T15:07:01.317Z,100358.31
2022-10-18T15:10:05.391Z,100369.06
2022-10-18T15:13:10.478Z,100348.41
2022-10-18T15:16:19.335Z,100356.34
2022-10-18T15:19:21.837Z,100350.53
2022-10-18T15:22:32.345Z,100364.56
2022-10-18T15:25:35.995Z,100363.69
2022-10-18T15:28:53.812Z,100356.22
2022-10-18T15:32:04.387Z,100353.69
2022-10-18T15:35:14.290Z,100356.63
2022-10-18T15:38:26.262Z,100353.75
2022-10-18T15:41:43.625Z,100340.44
2022-10-18T15:44:51.295Z,100342.25
2022-10-18T15:48:09.298Z,100338.59
2022-10-18T15:51:27.152Z,100341.22
2022-10-18T15:54:30.887Z,100339.88
2022-10-18T15:57:33.851Z,100340.00
2022-10-18T16:00:37.396Z,100333.41
2022-10-18T16:03:40.693Z,100344.56
2022-10-18T16:06:43.280Z,100346.88
2022-10-18T16:09:46.107Z,100353.31
2022-10-18T16:12:48.800Z,100347.06
2022-10-18T16:15:52.300Z,100342.78
2022-10-18T16:18:55.462Z,100353.88
2022-10-18T16:22:03.643Z,100355.56
2022-10-18T16:25:09.581Z,100357.25
2022-10-18T16:28:20.547Z,100345.91
2022-10-18T16:31:26.436Z,100342.78
2022-10-18T16:34:29.541Z,100359.34
2022-10-18T16:37:32.117Z,100362.00
2022-10-18T16:40:37.689Z,100359.91
2022-10-18T16:43:45.535Z,100365.94
2022-10-18T16:46:51.162Z,100379.31
2022-10-18T16:49:56.473Z,100379.63
2022-10-18T16:52:59.301Z,100383.94
2022-10-18T16:56:03.595Z,100379.41
2022-10-18T16:59:06.555Z,100378.53
2022-10-18T17:02:09.559Z,100377.97
2022-10-18T17:05:12.543Z,100378.59
2022-10-18T17:08:24.204Z,100386.56
2022-10-18T17:11:28.489Z,100393.22
2022-10-18T17:14:33.298Z,100387.88
2022-10-18T17:17:37.075Z,100388.31
2022-10-18T17:20:41.815Z,100393.41
2022-10-18T17:23:44.629Z,100375.13
2022-10-18T17:26:47.179Z,100394.22
2022-10-18T17:29:50.040Z,100381.41
2022-10-18T17:32:53.877Z,100375.00
2022-10-18T17:35:58.263Z,100379.53
2022-10-18T17:39:00.932Z,100361.34
2022-10-18T17:42:03.852Z,100370.59
2022-10-18T17:45:07.002Z,100381.59
2022-10-18T17:48:10.069Z,100370.41
2022-10-18T17:51:15.301Z,100375.13
2022-10-18T17:54:18.208Z,100377.72
2022-10-18T17:57:20.716Z,100372.81
2022-10-18T18:00:24.675Z,100370.34
2022-10-18T18:03:27.554Z,100368.69
2022-10-18T18:06:39.138Z,100361.44
2022-10-18T18:09:42.075Z,100367.13
2022-10-18T18:12:45.592Z,100369.16
2022-10-18T18:15:48.436Z,100362.22
2022-10-18T18:18:54.351Z,100361.91
2022-10-18T18:21:58.813Z,100361.78
2022-10-18T18:25:01.445Z,100360.72
2022-10-18T18:28:07.637Z,100358.31
2022-10-18T18:31:17.902Z,100359.75
2022-10-18T18:34:23.441Z,100349.31
2022-10-18T18:37:26.057Z,100351.16
2022-10-18T18:40:28.860Z,100356.22
2022-10-18T18:43:31.540Z,100341.72
2022-10-18T18:46:38.507Z,100353.28
2022-10-18T18:49:41.471Z,100342.13
2022-10-18T18:52:44.387Z,100351.91
2022-10-18T18:55:47.850Z,100347.75
2022-10-18T18:58:52.232Z,100348.41
2022-10-18T19:01:55.042Z,100342.37
2022-10-18T19:04:57.908Z,100326.56
2022-10-18T19:08:01.249Z,100332.59
2022-10-18T19:11:08.965Z,100329.06
2022-10-18T19:14:12.185Z,100325.97
2022-10-18T19:17:15.165Z,100332.06
2022-10-18T19:20:18.711Z,100341.34
2022-10-18T19:23:21.615Z,100338.47
2022-10-18T19:26:39.407Z,100330.75
2022-10-18T19:29:43.889Z,100313.31
2022-10-18T19:32:46.605Z,100314.44
2022-10-18T19:35:49.416Z,100334.69
2022-10-18T19:38:52.022Z,100322.06
2022-10-18T19:41:57.276Z,100321.00
2022-10-18T19:44:59.837Z,100331.87
2022-10-18T19:48:02.619Z,100328.19
2022-10-18T19:51:07.989Z,100315.06
2022-10-18T19:54:13.623Z,100331.09
2022-10-18T19:57:16.245Z,100324.25
2022-10-18T20:00:19.750Z,100326.72
2022-10-18T20:03:24.351Z,100330.75
2022-10-18T20:06:26.991Z,100327.25
2022-10-18T20:09:30.136Z,100329.34
2022-10-18T20:12:33.078Z,100319.28
2022-10-18T20:15:36.207Z,100326.13
2022-10-18T20:18:39.274Z,100325.56
2022-10-18T20:21:42.146Z,100328.34
2022-10-18T20:24:44.694Z,100324.63
2022-10-18T20:27:47.604Z,100325.91
2022-10-18T20:31:05.238Z,100324.03
2022-10-18T20:34:11.211Z,100306.56
2022-10-18T20:37:13.709Z,100324.66
2022-10-18T20:40:16.885Z,100311.47
2022-10-18T20:43:19.479Z,100308.75
2022-10-18T20:46:22.625Z,100299.22
2022-10-18T20:49:25.270Z,100314.66
2022-10-18T20:52:28.394Z,100309.66
2022-10-18T20:55:30.920Z,100321.50
2022-10-18T20:58:35.027Z,100302.00
2022-10-18T21:01:38.742Z,100314.72
2022-10-18T21:04:43.370Z,100314.72
2022-10-18T21:07:46.017Z,100301.59
2022-10-18T21:10:49.997Z,100307.81
2022-10-18T21:13:59.617Z,100314.09
2022-10-18T21:17:02.531Z,100295.56
2022-10-18T21:20:06.667Z,100291.16
2022-10-18T21:23:09.551Z,100300.28
2022-10-18T21:26:18.621Z,100289.41
2022-10-18T21:29:22.947Z,100293.78
2022-10-18T21:32:25.494Z,100277.53
2022-10-18T21:35:28.380Z,100292.91
2022-10-18T21:38:31.159Z,100290.78
2022-10-18T21:41:34.611Z,100278.66
2022-10-18T21:44:37.816Z,100287.19
2022-10-18T21:47:40.668Z,100270.13
2022-10-18T21:50:43.196Z,100288.63
2022-10-18T21:53:48.411Z,100265.22
2022-10-18T21:56:51.737Z,100268.31
2022-10-18T21:59:54.555Z,100267.87
2022-10-18T22:03:10.805Z,100271.19
2022-10-18T22:06:14.845Z,100254.81
2022-10-18T22:09:17.952Z,100254.63
2022-10-18T22:12:20.774Z,100264.56
2022-10-18T22:15:23.439Z,100246.59
2022-10-18T22:18:26.375Z,100251.88
2022-10-18T22:21:29.497Z,100252.44
2022-10-18T22:24:32.449Z,100253.66
2022-10-18T22:27:35.444Z,100241.00
2022-10-18T22:30:40.371Z,100233.16
2022-10-18T22:33:43.276Z,100245.38
2022-10-18T22:36:46.457Z,100250.37
2022-10-18T22:39:49.106Z,100244.47
2022-10-18T22:42:52.738Z,100248.19
2022-10-18T22:45:55.276Z,100247.50
2022-10-18T22:48:58.151Z,100229.97
2022-10-18T22:52:00.658Z,100247.34
2022-10-18T22:55:03.724Z,100235.78
2022-10-18T22:58:06.545Z,100225.38
2022-10-18T23:01:14.936Z,100239.97
2022-10-18T23:04:17.430Z,100245.34
2022-10-18T23:07:20.348Z,100238.81
2022-10-18T23:10:25.016Z,100238.59
2022-10-18T23:13:28.322Z,100238.13
2022-10-18T23:16:31.506Z,100242.91
2022-10-18T23:19:34.336Z,100242.03
2022-10-18T23:22:36.888Z,100240.19
2022-10-18T23:25:40.324Z,100231.47
2022-10-18T23:28:45.435Z,100244.56
2022-10-18T23:31:48.433Z,100234.25
2022-10-18T23:34:52.215Z,100233.78
2022-10-18T23:37:55.086Z,100218.84
2022-10-18T23:40:59.515Z,100243.03
2022-10-18T23:44:02.715Z,100232.25
2022-10-18T23:47:05.450Z,100235.59
2022-10-18T23:50:08.700Z,100215.19
2022-10-18T23:53:11.438Z,100214.81
2022-10-18T23:56:16.326Z,100223.72
2022-10-18T23:59:18.854Z,100233.69
